Time;durP1;ratioP1;P1;durP2;ratioP2;P2;SDS_P1;SDS_P2;PMS_P1;PMS_P2;Temp;Humidity;BMP_temperature;BMP_pressure;BME280_temperature;BME280_humidity;BME280_pressure;Samples;Min_cycle;Max_cycle;Signal;HPM_P1;HPM_P2
2022/01/01 00:00:50;;;;;;;43.22;15.73;;;11.20;99.90;;;;;;5030533;28;20025;-57
2022/01/01 00:03:15;;;;;;;48.50;15.30;;;11.30;99.90;;;;;;5030039;28;20025;-57
2022/01/01 00:05:41;;;;;;;46.97;17.80;;;11.20;99.90;;;;;;5030280;28;20049;-55
2022/01/01 00:08:08;;;;;;;46.50;16.40;;;11.30;99.90;;;;;;5029500;28;20040;-56
2022/01/01 00:10:34;;;;;;;40.28;15.75;;;11.20;99.90;;;;;;5030493;28;20124;-55
2022/01/01 00:12:59;;;;;;;39.85;15.25;;;11.30;99.90;;;;;;5030445;28;20332;-56
2022/01/01 00:15:25;;;;;;;42.00;14.77;;;11.20;99.90;;;;;;5029724;28;20025;-57
2022/01/01 00:17:51;;;;;;;37.85;16.15;;;11.20;99.90;;;;;;5029135;28;20026;-56
2022/01/01 00:20:16;;;;;;;39.22;16.65;;;11.20;99.90;;;;;;5029561;28;20025;-54
2022/01/01 00:22:43;;;;;;;44.08;14.80;;;11.20;99.90;;;;;;5029331;28;20140;-56
2022/01/01 00:25:10;;;;;;;37.95;14.07;;;11.30;99.90;;;;;;5011685;28;20120;-56
2022/01/01 00:27:36;;;;;;;37.80;13.90;;;11.30;99.90;;;;;;5029838;28;20040;-56
2022/01/01 00:30:06;;;;;;;35.50;12.75;;;11.20;99.90;;;;;;5029059;28;20026;-55
2022/01/01 00:32:36;;;;;;;42.80;13.93;;;11.20;99.90;;;;;;5029007;28;20052;-55
2022/01/01 00:35:03;;;;;;;39.50;13.23;;;11.20;99.90;;;;;;5029233;28;20030;-56
2022/01/01 00:37:29;;;;;;;33.10;12.80;;;11.20;99.90;;;;;;5011391;28;20120;-59
2022/01/01 00:39:55;;;;;;;45.25;16.20;;;11.20;99.90;;;;;;5029379;28;20100;-56
2022/01/01 00:42:22;;;;;;;39.33;14.95;;;11.20;99.90;;;;;;5029158;28;20084;-53
2022/01/01 00:44:47;;;;;;;33.28;11.95;;;11.20;99.90;;;;;;5030167;28;20029;-57
2022/01/01 00:47:13;;;;;;;31.73;12.45;;;11.20;99.90;;;;;;5030046;28;20416;-57
2022/01/01 00:49:38;;;;;;;30.98;11.70;;;11.20;99.90;;;;;;5029458;28;20033;-54
2022/01/01 00:52:04;;;;;;;31.83;11.73;;;11.20;99.90;;;;;;5028846;28;20026;-56
2022/01/01 00:54:30;;;;;;;37.95;11.80;;;11.20;99.90;;;;;;5030181;28;20034;-54
2022/01/01 00:56:56;;;;;;;27.98;11.70;;;11.20;99.90;;;;;;5029443;28;20064;-57
2022/01/01 00:59:21;;;;;;;29.70;11.60;;;11.20;99.90;;;;;;5029176;28;20356;-56
2022/01/01 01:01:47;;;;;;;34.88;11.88;;;11.20;99.90;;;;;;5010704;28;20030;-57
2022/01/01 01:04:13;;;;;;;38.90;11.32;;;11.20;99.90;;;;;;5029172;28;20053;-58
2022/01/01 01:06:39;;;;;;;33.60;11.20;;;11.30;99.90;;;;;;5029394;28;20032;-56
2022/01/01 01:09:05;;;;;;;30.73;11.25;;;11.30;99.90;;;;;;5028881;28;20026;-54
2022/01/01 01:11:31;;;;;;;31.17;11.43;;;11.20;99.90;;;;;;5029130;28;20052;-56
2022/01/01 01:14:07;;;;;;;28.85;10.25;;;11.30;99.90;;;;;;5011046;28;20108;-56
2022/01/01 01:16:32;;;;;;;28.38;10.35;;;11.30;99.90;;;;;;5029443;28;20410;-57
2022/01/01 01:18:58;;;;;;;33.08;11.55;;;11.30;99.90;;;;;;5029176;28;20037;-58
2022/01/01 01:21:25;;;;;;;35.53;11.45;;;11.30;99.90;;;;;;5029049;28;20037;-59
2022/01/01 01:23:51;;;;;;;32.60;13.20;;;11.30;99.90;;;;;;5028478;28;20049;-58
2022/01/01 01:26:17;;;;;;;36.13;10.68;;;11.30;99.90;;;;;;5029181;28;20053;-58
2022/01/01 01:28:49;;;;;;;31.15;10.48;;;11.30;99.90;;;;;;5028876;28;20089;-57
2022/01/01 01:31:15;;;;;;;29.27;10.38;;;11.30;99.90;;;;;;5029562;28;20087;-55
2022/01/01 01:33:41;;;;;;;28.13;10.95;;;11.30;99.90;;;;;;5028197;28;20621;-57
2022/01/01 01:36:07;;;;;;;34.50;11.38;;;11.30;99.90;;;;;;5028646;28;20081;-56
2022/01/01 01:38:36;;;;;;;31.08;12.23;;;11.30;99.90;;;;;;5029583;28;20029;-54
2022/01/01 01:41:06;;;;;;;36.80;11.75;;;11.30;99.90;;;;;;5028416;28;20092;-53
2022/01/01 01:43:32;;;;;;;38.72;11.25;;;11.20;99.90;;;;;;5028480;28;20040;-57
2022/01/01 01:46:04;;;;;;;38.67;11.60;;;11.30;99.90;;;;;;5010931;28;20021;-57
2022/01/01 01:48:36;;;;;;;33.10;10.23;;;11.30;99.90;;;;;;5029087;28;20029;-56
2022/01/01 01:51:03;;;;;;;39.08;11.82;;;11.20;99.90;;;;;;5028749;28;20333;-56
2022/01/01 01:53:29;;;;;;;34.53;11.93;;;11.20;99.90;;;;;;5028584;28;20025;-57
2022/01/01 01:55:57;;;;;;;34.33;10.85;;;11.20;99.90;;;;;;5031038;28;20060;-57
2022/01/01 01:58:23;;;;;;;31.38;10.77;;;11.20;99.90;;;;;;5014259;28;20032;-59
2022/01/01 02:03:15;;;;;;;40.75;10.75;;;11.20;99.90;;;;;;5031422;28;20022;-58
2022/01/01 02:05:41;;;;;;;35.45;10.95;;;11.20;99.90;;;;;;5032223;28;20116;-57
2022/01/01 02:08:07;;;;;;;33.15;10.07;;;11.30;99.90;;;;;;5031696;28;20040;-56
2022/01/01 02:10:34;;;;;;;33.42;9.52;;;11.30;99.90;;;;;;5031875;28;20037;-57
2022/01/01 02:13:06;;;;;;;26.05;11.10;;;11.30;99.90;;;;;;5031431;28;20614;-57
2022/01/01 02:18:17;;;;;;;25.38;10.13;;;11.30;99.90;;;;;;5032591;28;20480;-56
2022/01/01 02:20:49;;;;;;;24.98;9.50;;;11.30;99.90;;;;;;5032741;28;20048;-59
2022/01/01 02:23:18;;;;;;;32.35;10.43;;;11.30;99.90;;;;;;5030979;28;20033;-59
2022/01/01 02:25:48;;;;;;;36.60;10.32;;;11.30;99.90;;;;;;5031267;28;20044;-59
2022/01/01 02:28:13;;;;;;;32.88;10.27;;;11.30;99.90;;;;;;5031389;28;20041;-58
2022/01/01 02:30:39;;;;;;;26.30;10.20;;;11.30;99.90;;;;;;5031558;28;20033;-59
2022/01/01 02:33:05;;;;;;;34.90;11.75;;;11.30;99.90;;;;;;5030716;28;20052;-56
2022/01/01 02:35:30;;;;;;;35.20;10.40;;;11.30;99.90;;;;;;5031376;28;20026;-57
2022/01/01 02:37:56;;;;;;;32.10;9.18;;;11.30;99.90;;;;;;5031388;28;20033;-59
2022/01/01 02:40:22;;;;;;;34.20;11.20;;;11.30;99.90;;;;;;5030950;28;20036;-59
2022/01/01 02:42:47;;;;;;;40.75;11.85;;;11.30;99.90;;;;;;5030849;28;20088;-59
2022/01/01 02:45:14;;;;;;;34.17;10.90;;;11.30;99.90;;;;;;5031261;28;20034;-59
2022/01/01 02:47:41;;;;;;;30.42;9.68;;;11.30;99.90;;;;;;5031450;28;20035;-59
2022/01/01 02:50:08;;;;;;;33.90;11.32;;;11.30;99.90;;;;;;5030759;28;20453;-58
2022/01/01 02:52:34;;;;;;;34.78;10.88;;;11.30;99.90;;;;;;5031134;28;20472;-57
2022/01/01 02:54:59;;;;;;;33.92;10.52;;;11.40;99.90;;;;;;5013444;28;20052;-58
2022/01/01 02:57:25;;;;;;;31.25;11.13;;;11.40;99.90;;;;;;5013409;28;20112;-59
2022/01/01 02:59:51;;;;;;;32.08;10.32;;;11.40;99.90;;;;;;5031138;28;20383;-59
2022/01/01 03:02:16;;;;;;;34.08;11.85;;;11.40;99.90;;;;;;5030652;28;20251;-59
2022/01/01 03:04:42;;;;;;;33.97;11.45;;;11.40;99.90;;;;;;5031226;28;20032;-58
2022/01/01 03:07:08;;;;;;;35.47;10.98;;;11.40;99.90;;;;;;5030147;28;20072;-57
2022/01/01 03:09:36;;;;;;;31.85;12.02;;;11.40;99.90;;;;;;5030771;28;20448;-58
2022/01/01 03:12:07;;;;;;;32.15;11.15;;;11.40;99.90;;;;;;5030238;28;20098;-59
2022/01/01 03:14:33;;;;;;;39.17;12.07;;;11.30;99.90;;;;;;5030813;28;20029;-59
2022/01/01 03:16:59;;;;;;;36.42;12.55;;;11.40;99.90;;;;;;5030563;28;20040;-57
2022/01/01 03:19:25;;;;;;;31.75;11.38;;;11.40;99.90;;;;;;5030578;28;20038;-58
2022/01/01 03:21:51;;;;;;;39.92;12.68;;;11.40;99.90;;;;;;5029979;28;20075;-59
2022/01/01 03:24:16;;;;;;;34.70;13.10;;;11.40;99.90;;;;;;5012927;28;20038;-58
2022/01/01 03:26:42;;;;;;;32.63;11.73;;;11.40;99.90;;;;;;5030880;28;20517;-58
2022/01/01 03:29:08;;;;;;;38.17;12.52;;;11.40;99.90;;;;;;5029975;28;20041;-58
2022/01/01 03:31:33;;;;;;;34.90;11.60;;;11.40;99.90;;;;;;5030416;28;20030;-56
2022/01/01 03:33:59;;;;;;;38.17;13.15;;;11.40;99.90;;;;;;5029969;28;20053;-57
2022/01/01 03:36:26;;;;;;;37.17;13.30;;;11.40;99.90;;;;;;5030254;28;20033;-57
2022/01/01 03:38:52;;;;;;;39.15;12.85;;;11.40;99.90;;;;;;5030375;28;20579;-57
2022/01/01 03:41:18;;;;;;;37.08;13.10;;;11.40;99.90;;;;;;5030155;28;20535;-58
2022/01/01 03:43:44;;;;;;;36.10;12.45;;;11.40;99.90;;;;;;5029880;28;20025;-58
2022/01/01 03:46:09;;;;;;;35.65;13.10;;;11.40;99.90;;;;;;5012495;28;20109;-58
2022/01/01 03:48:35;;;;;;;34.20;12.75;;;11.40;99.90;;;;;;5030301;28;20097;-57
2022/01/01 03:51:01;;;;;;;37.17;12.48;;;11.40;99.90;;;;;;5011850;28;20378;-57
2022/01/01 03:53:26;;;;;;;39.25;12.77;;;11.40;99.90;;;;;;5030022;28;20026;-57
2022/01/01 03:55:53;;;;;;;38.15;12.90;;;11.40;99.90;;;;;;5030014;28;20041;-54
2022/01/01 03:58:19;;;;;;;34.85;13.13;;;11.40;99.90;;;;;;5018991;28;20053;-56
2022/01/01 04:00:44;;;;;;;35.97;13.25;;;11.40;99.90;;;;;;5029623;28;20072;-57
2022/01/01 04:03:13;;;;;;;34.60;13.55;;;11.40;99.90;;;;;;5011128;28;20036;-53
2022/01/01 04:05:40;;;;;;;38.55;12.75;;;11.40;99.90;;;;;;5020829;28;20030;-56
2022/01/01 04:08:06;;;;;;;34.47;13.75;;;11.40;99.90;;;;;;5028657;28;20025;-58
2022/01/01 04:10:33;;;;;;;37.40;14.68;;;11.40;99.90;;;;;;5029490;28;20314;-55
2022/01/01 04:12:59;;;;;;;35.17;13.48;;;11.40;99.90;;;;;;5028608;28;20037;-59
2022/01/01 04:15:28;;;;;;;38.92;14.38;;;11.40;99.90;;;;;;5030218;28;20067;-58
2022/01/01 04:17:58;;;;;;;40.92;15.27;;;11.40;99.90;;;;;;5028922;28;20057;-58
2022/01/01 04:20:25;;;;;;;35.42;14.18;;;11.40;99.90;;;;;;5029244;28;20438;-57
2022/01/01 04:22:55;;;;;;;39.90;15.30;;;11.40;99.90;;;;;;5026493;28;20060;-59
2022/01/01 04:25:22;;;;;;;40.90;15.10;;;11.40;99.90;;;;;;5029547;28;20030;-58
2022/01/01 04:27:49;;;;;;;38.33;14.63;;;11.40;99.90;;;;;;5028563;28;20025;-55
2022/01/01 04:30:15;;;;;;;43.15;14.82;;;11.40;99.90;;;;;;5029087;28;20033;-59
2022/01/01 04:32:41;;;;;;;42.70;16.08;;;11.40;99.90;;;;;;5027882;28;20025;-57
2022/01/01 04:35:07;;;;;;;41.55;15.77;;;11.40;99.90;;;;;;5029002;28;20017;-57
2022/01/01 04:37:33;;;;;;;47.30;16.27;;;11.40;99.90;;;;;;5028840;28;20033;-58
2022/01/01 04:39:59;;;;;;;42.22;15.65;;;11.40;99.90;;;;;;5029168;28;20025;-56
2022/01/01 04:42:29;;;;;;;44.40;16.25;;;11.40;99.90;;;;;;5027855;28;20029;-55
2022/01/01 04:44:55;;;;;;;43.45;16.52;;;11.40;99.90;;;;;;5028912;28;20025;-57
2022/01/01 04:47:20;;;;;;;47.95;17.90;;;11.40;99.90;;;;;;5023622;28;20550;-54
2022/01/01 04:49:46;;;;;;;42.42;16.58;;;11.40;99.90;;;;;;5029289;28;20130;-55
2022/01/01 04:52:12;;;;;;;49.33;18.10;;;11.40;99.90;;;;;;5027439;28;20048;-57
2022/01/01 04:54:42;;;;;;;45.60;17.05;;;11.40;99.90;;;;;;5029254;28;20108;-57
2022/01/01 04:57:09;;;;;;;51.40;18.33;;;11.40;99.90;;;;;;5027248;28;20033;-56
2022/01/01 04:59:39;;;;;;;51.30;17.88;;;11.40;99.90;;;;;;5029163;28;20032;-57
2022/01/01 05:02:05;;;;;;;43.28;17.30;;;11.40;99.90;;;;;;5009178;28;20112;-57
2022/01/01 05:04:31;;;;;;;42.28;17.88;;;11.40;99.90;;;;;;5011041;28;20156;-58
2022/01/01 05:06:57;;;;;;;49.35;17.02;;;11.40;99.90;;;;;;5028050;28;20025;-58
2022/01/01 05:09:23;;;;;;;44.00;16.65;;;11.40;99.90;;;;;;5028514;28;20036;-57
2022/01/01 05:11:48;;;;;;;48.00;18.17;;;11.40;99.90;;;;;;5027398;28;20440;-58
2022/01/01 05:14:17;;;;;;;42.90;17.95;;;11.40;99.90;;;;;;5028716;28;20026;-55
2022/01/01 05:16:43;;;;;;;44.22;18.30;;;11.40;99.90;;;;;;5027913;28;20458;-58
2022/01/01 05:19:09;;;;;;;40.88;16.73;;;11.40;99.90;;;;;;5028885;28;20056;-58
2022/01/01 05:21:36;;;;;;;41.63;17.77;;;11.40;99.90;;;;;;5027888;28;20033;-58
2022/01/01 05:24:04;;;;;;;46.45;18.33;;;11.40;99.90;;;;;;5028275;28;20021;-56
2022/01/01 05:26:30;;;;;;;52.28;19.33;;;11.40;99.90;;;;;;5028323;28;20096;-58
2022/01/01 05:28:56;;;;;;;47.85;18.80;;;11.40;99.90;;;;;;5030085;28;20032;-57
2022/01/01 05:31:22;;;;;;;51.72;19.27;;;11.30;99.90;;;;;;5032518;28;20060;-57
2022/01/01 05:33:49;;;;;;;54.03;18.58;;;11.40;99.90;;;;;;5030480;28;20030;-57
2022/01/01 05:36:16;;;;;;;50.22;17.98;;;11.40;99.90;;;;;;5029623;28;20077;-58
2022/01/01 05:38:42;;;;;;;47.60;18.70;;;11.40;99.90;;;;;;5031835;28;20464;-57
2022/01/01 05:41:08;;;;;;;46.70;18.40;;;11.40;99.90;;;;;;5032126;28;20057;-58
2022/01/01 05:43:34;;;;;;;53.90;18.05;;;11.40;99.90;;;;;;5030589;28;20423;-58
2022/01/01 05:45:59;;;;;;;43.90;17.23;;;11.40;99.90;;;;;;5032374;28;20025;-58
2022/01/01 05:48:25;;;;;;;51.95;19.00;;;11.40;99.90;;;;;;5031762;28;20416;-58
2022/01/01 05:50:51;;;;;;;44.67;18.17;;;11.40;99.90;;;;;;5031076;28;20030;-57
2022/01/01 05:53:17;;;;;;;46.92;18.92;;;11.40;99.90;;;;;;5031811;28;20387;-57
2022/01/01 05:55:42;;;;;;;51.97;17.83;;;11.40;99.90;;;;;;5031474;28;20518;-55
2022/01/01 05:58:08;;;;;;;51.53;17.83;;;11.40;99.90;;;;;;5030974;28;20053;-57
2022/01/01 06:00:34;;;;;;;51.33;18.85;;;11.40;99.90;;;;;;5013511;28;20060;-55
2022/01/01 06:03:00;;;;;;;49.47;17.95;;;11.40;99.90;;;;;;5031440;28;20071;-58
2022/01/01 06:05:27;;;;;;;52.10;18.27;;;11.40;99.90;;;;;;5031073;28;20033;-57
2022/01/01 06:07:54;;;;;;;50.28;18.52;;;11.40;99.90;;;;;;5031010;28;20448;-57
2022/01/01 06:10:21;;;;;;;47.10;18.00;;;11.40;99.90;;;;;;5029957;28;20241;-57
2022/01/01 06:12:47;;;;;;;48.78;18.00;;;11.40;99.90;;;;;;5031184;28;20049;-57
2022/01/01 06:15:13;;;;;;;45.88;17.30;;;11.40;99.90;;;;;;5030646;28;20176;-55
2022/01/01 06:17:38;;;;;;;45.90;16.83;;;11.30;99.90;;;;;;5017381;28;20037;-58
2022/01/01 06:20:05;;;;;;;47.55;17.38;;;11.40;99.90;;;;;;5031452;28;20034;-57
2022/01/01 06:22:30;;;;;;;45.13;15.95;;;11.40;99.90;;;;;;5030668;28;20076;-55
2022/01/01 06:24:56;;;;;;;42.72;16.33;;;11.40;99.90;;;;;;5031651;28;20072;-58
2022/01/01 06:27:22;;;;;;;40.30;16.80;;;11.40;99.90;;;;;;5031551;28;20389;-57
2022/01/01 06:29:47;;;;;;;38.97;16.83;;;11.40;99.90;;;;;;5031439;28;20041;-55
2022/01/01 06:32:14;;;;;;;52.22;17.33;;;11.40;99.90;;;;;;5029852;28;20032;-55
2022/01/01 06:34:39;;;;;;;45.88;16.90;;;11.40;99.90;;;;;;5031565;28;20471;-57
2022/01/01 06:37:05;;;;;;;44.13;16.40;;;11.40;99.90;;;;;;5029766;28;20116;-57
2022/01/01 06:39:31;;;;;;;46.15;15.85;;;11.40;99.90;;;;;;5031531;28;20491;-56
2022/01/01 06:41:57;;;;;;;43.72;16.27;;;11.40;99.90;;;;;;5011313;28;20112;-56
2022/01/01 06:44:22;;;;;;;46.75;16.48;;;11.40;99.90;;;;;;5031277;28;20038;-55
2022/01/01 06:46:48;;;;;;;51.78;16.42;;;11.40;99.90;;;;;;5030383;28;20067;-54
2022/01/01 06:49:14;;;;;;;38.40;15.63;;;11.40;99.90;;;;;;5012279;28;20041;-54
2022/01/01 06:51:40;;;;;;;43.83;15.35;;;11.40;99.90;;;;;;5031138;28;20388;-56
2022/01/01 06:54:05;;;;;;;51.50;16.65;;;11.40;99.90;;;;;;5029796;28;20026;-56
2022/01/01 06:56:31;;;;;;;43.63;15.50;;;11.40;99.90;;;;;;5029877;28;20085;-55
2022/01/01 06:58:57;;;;;;;47.60;15.40;;;11.40;99.90;;;;;;5031256;28;20547;-56
2022/01/01 07:01:22;;;;;;;51.95;15.32;;;11.40;99.90;;;;;;5030041;28;20033;-55
2022/01/01 07:03:48;;;;;;;43.83;15.85;;;11.40;99.90;;;;;;5029493;28;20514;-54
2022/01/01 07:06:14;;;;;;;43.55;15.52;;;11.30;99.90;;;;;;5030259;28;20052;-56
2022/01/01 07:08:39;;;;;;;43.00;16.85;;;11.30;99.90;;;;;;5030086;28;20178;-56
2022/01/01 07:11:05;;;;;;;48.97;15.30;;;11.30;99.90;;;;;;5030725;28;20107;-53
2022/01/01 07:13:31;;;;;;;47.95;16.23;;;11.30;99.90;;;;;;5028846;28;20538;-55
2022/01/01 07:15:56;;;;;;;42.75;15.10;;;11.30;99.90;;;;;;5030691;28;20117;-56
2022/01/01 07:18:22;;;;;;;43.75;15.77;;;11.30;99.90;;;;;;5030508;28;20025;-54
2022/01/01 07:20:48;;;;;;;52.53;15.90;;;11.30;99.90;;;;;;5030575;28;20033;-54
2022/01/01 07:23:13;;;;;;;47.10;15.63;;;11.30;99.90;;;;;;5029308;28;20416;-54
2022/01/01 07:25:39;;;;;;;42.55;16.13;;;11.30;99.90;;;;;;5030695;28;20426;-54
2022/01/01 07:28:05;;;;;;;45.67;15.80;;;11.30;99.90;;;;;;5029109;28;20380;-54
2022/01/01 07:30:30;;;;;;;46.55;15.63;;;11.40;99.90;;;;;;5030700;28;20041;-56
2022/01/01 07:32:56;;;;;;;46.83;16.17;;;11.30;99.90;;;;;;5028715;28;20344;-54
2022/01/01 07:35:22;;;;;;;45.92;16.98;;;11.40;99.90;;;;;;5030093;28;20021;-53
2022/01/01 07:37:49;;;;;;;50.85;16.50;;;11.40;99.90;;;;;;5029409;28;20029;-54
2022/01/01 07:40:17;;;;;;;52.28;16.65;;;11.30;99.90;;;;;;5030127;28;20090;-53
2022/01/01 07:42:43;;;;;;;49.70;15.50;;;11.30;99.90;;;;;;5029093;28;20037;-57
2022/01/01 07:45:10;;;;;;;43.30;15.52;;;11.30;99.90;;;;;;5030053;28;20112;-56
2022/01/01 07:47:36;;;;;;;48.38;15.65;;;11.30;99.90;;;;;;5029384;28;20107;-54
2022/01/01 07:50:03;;;;;;;49.58;16.98;;;11.30;99.90;;;;;;5029642;28;20805;-53
2022/01/01 07:52:29;;;;;;;49.30;15.57;;;11.30;99.90;;;;;;5027768;28;20033;-54
2022/01/01 07:54:54;;;;;;;46.97;17.52;;;11.30;99.90;;;;;;5030273;28;20504;-55
2022/01/01 07:57:20;;;;;;;51.30;17.17;;;11.30;99.90;;;;;;5030145;28;20033;-55
2022/01/01 07:59:46;;;;;;;44.92;15.77;;;11.30;99.90;;;;;;5030121;28;20084;-54
2022/01/01 08:02:12;;;;;;;41.28;16.23;;;11.30;99.90;;;;;;5026734;28;20033;-55
2022/01/01 08:04:37;;;;;;;52.05;18.27;;;11.30;99.90;;;;;;5014714;28;20480;-55
2022/01/01 08:07:03;;;;;;;52.63;18.27;;;11.30;99.90;;;;;;5028512;28;20048;-54
2022/01/01 08:09:29;;;;;;;53.40;17.60;;;11.30;99.90;;;;;;5028569;28;20543;-56
2022/01/01 08:11:55;;;;;;;46.85;16.80;;;11.30;99.90;;;;;;5011428;28;20041;-56
2022/01/01 08:14:23;;;;;;;48.60;17.02;;;11.40;99.90;;;;;;5029581;28;20040;-57
2022/01/01 08:17:03;;;;;;;51.70;18.50;;;11.30;99.90;;;;;;5027785;28;20025;-57
2022/01/01 08:19:29;;;;;;;48.13;18.08;;;11.30;99.90;;;;;;5011855;28;20041;-56
2022/01/01 08:21:55;;;;;;;54.40;19.25;;;11.30;99.90;;;;;;5023634;28;20037;-55
2022/01/01 08:24:22;;;;;;;52.08;18.13;;;11.40;99.90;;;;;;5029086;28;20065;-56
2022/01/01 08:26:48;;;;;;;62.67;20.40;;;11.40;99.90;;;;;;5029341;28;20028;-54
2022/01/01 08:29:14;;;;;;;53.22;17.92;;;11.30;99.90;;;;;;5029716;28;20029;-56
2022/01/01 08:31:40;;;;;;;53.15;20.25;;;11.40;99.90;;;;;;5029528;28;20021;-56
2022/01/01 08:34:06;;;;;;;53.20;19.15;;;11.40;99.90;;;;;;5029831;28;20033;-56
2022/01/01 08:36:32;;;;;;;55.85;19.17;;;11.40;99.90;;;;;;5029697;28;20030;-56
2022/01/01 08:38:57;;;;;;;53.03;19.70;;;11.40;99.90;;;;;;5029440;28;20025;-55
2022/01/01 08:41:24;;;;;;;66.05;20.88;;;11.40;99.90;;;;;;5029202;28;20017;-56
2022/01/01 08:43:49;;;;;;;58.75;21.48;;;11.40;99.90;;;;;;5029447;28;20021;-56
2022/01/01 08:46:15;;;;;;;63.20;21.67;;;11.40;99.90;;;;;;5009602;28;20029;-55
2022/01/01 08:48:41;;;;;;;51.72;20.27;;;11.40;99.90;;;;;;5029476;28;20503;-55
2022/01/01 08:51:21;;;;;;;58.88;20.25;;;11.50;99.90;;;;;;5028856;28;20121;-54
2022/01/01 08:53:48;;;;;;;56.65;20.10;;;11.40;99.90;;;;;;5010022;28;20048;-55
2022/01/01 08:56:14;;;;;;;63.03;22.10;;;11.50;99.90;;;;;;5020107;28;20045;-56
2022/01/01 08:58:40;;;;;;;60.30;23.33;;;11.50;99.90;;;;;;5029521;28;20025;-56
2022/01/01 09:01:06;;;;;;;60.85;22.45;;;11.50;99.90;;;;;;5028933;28;20152;-55
2022/01/01 09:03:37;;;;;;;59.50;21.88;;;11.50;99.90;;;;;;5030047;28;20409;-55
2022/01/01 09:06:04;;;;;;;76.90;24.08;;;11.50;99.90;;;;;;5032741;28;20053;-55
2022/01/01 09:08:31;;;;;;;68.93;24.90;;;11.50;99.90;;;;;;5033286;28;20483;-52
2022/01/01 09:10:57;;;;;;;65.53;25.20;;;11.50;99.90;;;;;;5033196;28;20076;-55
2022/01/01 09:13:23;;;;;;;69.95;25.85;;;11.50;99.90;;;;;;5019633;28;20472;-56
2022/01/01 09:15:49;;;;;;;70.35;26.52;;;11.50;99.90;;;;;;5025369;28;20029;-55
2022/01/01 09:18:14;;;;;;;67.50;27.17;;;11.60;99.90;;;;;;5025063;28;20030;-56
2022/01/01 09:20:40;;;;;;;65.20;25.58;;;11.60;99.90;;;;;;5031999;28;20030;-55
2022/01/01 09:23:06;;;;;;;68.90;26.90;;;11.60;99.90;;;;;;5031965;28;20100;-54
2022/01/01 09:25:31;;;;;;;78.68;27.95;;;11.60;99.90;;;;;;5032180;28;20053;-55
2022/01/01 09:27:57;;;;;;;72.45;27.88;;;11.60;99.90;;;;;;5031921;28;20033;-55
2022/01/01 09:30:23;;;;;;;81.15;28.08;;;11.60;99.90;;;;;;5032483;28;20037;-57
2022/01/01 09:32:49;;;;;;;80.18;29.27;;;11.60;99.90;;;;;;5031172;28;20480;-56
2022/01/01 09:35:16;;;;;;;83.95;29.58;;;11.60;99.90;;;;;;5032487;28;20049;-57
2022/01/01 09:37:42;;;;;;;77.97;30.33;;;11.60;99.90;;;;;;5031143;28;20033;-56
2022/01/01 09:40:08;;;;;;;80.05;32.45;;;11.60;99.90;;;;;;5014990;28;20029;-55
2022/01/01 09:42:34;;;;;;;89.55;31.75;;;11.60;99.90;;;;;;5032095;28;20041;-54
2022/01/01 09:45:01;;;;;;;85.95;33.58;;;11.60;99.90;;;;;;5032920;28;20045;-55
2022/01/01 09:47:28;;;;;;;78.60;32.08;;;11.60;99.90;;;;;;5031299;28;20041;-57
2022/01/01 09:49:53;;;;;;;76.57;32.70;;;11.60;99.90;;;;;;5032248;28;20022;-56
2022/01/01 09:52:19;;;;;;;89.82;35.42;;;11.60;99.90;;;;;;5030946;28;20025;-57
2022/01/01 09:54:45;;;;;;;90.43;36.78;;;11.60;99.90;;;;;;5032073;28;20030;-57
2022/01/01 09:57:10;;;;;;;85.45;35.63;;;11.60;99.90;;;;;;5030564;28;20021;-56
2022/01/01 09:59:40;;;;;;;101.03;37.60;;;11.70;99.90;;;;;;5024259;28;20072;-56
2022/01/01 10:02:06;;;;;;;90.40;36.63;;;11.60;99.90;;;;;;5030277;28;20095;-58
2022/01/01 10:04:41;;;;;;;89.68;39.60;;;11.70;99.90;;;;;;5030395;28;20042;-57
2022/01/01 10:07:08;;;;;;;99.57;39.83;;;11.60;99.90;;;;;;5028386;28;20032;-57
2022/01/01 10:09:36;;;;;;;108.00;43.20;;;11.60;99.90;;;;;;5031140;28;20021;-57
2022/01/01 10:12:06;;;;;;;99.65;40.65;;;11.70;99.90;;;;;;5029908;28;20044;-54
2022/01/01 10:14:34;;;;;;;93.45;42.05;;;11.70;99.90;;;;;;5014035;28;20033;-56
2022/01/01 10:17:07;;;;;;;101.32;43.47;;;11.70;99.90;;;;;;5028905;28;20025;-58
2022/01/01 10:19:32;;;;;;;91.80;40.75;;;11.70;99.90;;;;;;5031918;28;20026;-52
2022/01/01 10:22:03;;;;;;;102.13;43.65;;;11.70;99.90;;;;;;5028958;28;20091;-55
2022/01/01 10:27:42;;;;;;;107.15;43.35;;;11.70;99.90;;;;;;5031621;28;20037;-53
2022/01/01 10:29:58;;;;;;;99.53;42.63;;;11.70;99.90;;;;;;5031532;28;20040;-55
2022/01/01 10:32:24;;;;;;;104.03;42.53;;;11.70;99.90;;;;;;5029905;28;20502;-53
2022/01/01 10:34:50;;;;;;;101.13;42.45;;;11.70;99.90;;;;;;5031457;28;20035;-56
2022/01/01 10:37:15;;;;;;;103.80;43.75;;;11.70;99.90;;;;;;5024398;28;20045;-53
2022/01/01 10:39:49;;;;;;;104.35;43.10;;;11.70;99.90;;;;;;5031496;28;20468;-53
2022/01/01 10:42:14;;;;;;;102.18;42.08;;;11.70;99.90;;;;;;5030035;28;20048;-55
2022/01/01 10:44:45;;;;;;;104.10;41.75;;;11.70;99.90;;;;;;5030404;28;20763;-56
2022/01/01 10:47:18;;;;;;;94.45;39.92;;;11.70;99.90;;;;;;5030317;28;20025;-56
2022/01/01 10:52:14;;;;;;;105.53;40.97;;;11.70;99.90;;;;;;5030741;28;20022;-57
2022/01/01 10:55:00;;;;;;;97.03;38.47;;;11.70;99.90;;;;;;5030956;28;20041;-54
2022/01/01 10:57:36;;;;;;;74.43;35.40;;;11.70;99.90;;;;;;5031121;28;20406;-51
2022/01/01 11:00:04;;;;;;;83.43;34.67;;;11.60;99.90;;;;;;5030591;28;20025;-55
2022/01/01 11:02:34;;;;;;;87.15;35.70;;;11.70;99.90;;;;;;5029617;28;20578;-57
2022/01/01 11:05:00;;;;;;;76.53;35.33;;;11.70;99.90;;;;;;5031382;28;20040;-53
2022/01/01 11:07:30;;;;;;;72.13;32.83;;;11.80;99.90;;;;;;5030347;28;20124;-50
2022/01/01 11:09:57;;;;;;;80.18;34.03;;;11.70;99.90;;;;;;5012984;28;20033;-53
2022/01/01 11:12:28;;;;;;;81.90;33.88;;;11.80;99.90;;;;;;5030083;28;20034;-55
2022/01/01 11:14:55;;;;;;;80.88;34.60;;;11.80;99.90;;;;;;5030577;28;20032;-54
2022/01/01 11:17:22;;;;;;;83.03;33.95;;;11.80;99.90;;;;;;5029880;28;20032;-55
2022/01/01 11:19:48;;;;;;;73.15;32.20;;;11.80;99.90;;;;;;5011869;28;20443;-56
2022/01/01 11:22:15;;;;;;;74.57;33.05;;;11.80;99.90;;;;;;5029262;28;20068;-57
2022/01/01 11:24:42;;;;;;;80.72;31.60;;;11.90;99.90;;;;;;5031020;28;20144;-56
2022/01/01 11:27:08;;;;;;;73.63;32.05;;;11.90;99.90;;;;;;5028959;28;20558;-55
2022/01/01 11:29:35;;;;;;;74.63;32.55;;;11.90;99.90;;;;;;5029040;28;20037;-56
2022/01/01 11:32:03;;;;;;;70.47;30.27;;;11.90;99.90;;;;;;5029104;28;20092;-56
2022/01/01 11:34:35;;;;;;;70.28;31.10;;;11.90;99.90;;;;;;5030599;28;20025;-55
2022/01/01 11:37:01;;;;;;;82.40;32.92;;;12.00;99.90;;;;;;5029532;28;20026;-55
2022/01/01 11:39:27;;;;;;;72.22;31.63;;;11.90;99.90;;;;;;5026358;28;20041;-54
2022/01/01 11:42:14;;;;;;;69.53;30.58;;;12.00;99.90;;;;;;5029784;28;20196;-56
2022/01/01 11:44:42;;;;;;;79.53;32.20;;;12.00;99.90;;;;;;5022909;28;20049;-50
2022/01/01 11:47:20;;;;;;;74.55;31.05;;;12.00;99.90;;;;;;5027673;28;20025;-52
2022/01/01 11:49:47;;;;;;;64.63;31.00;;;12.00;99.90;;;;;;5022077;28;20030;-51
2022/01/01 11:52:33;;;;;;;66.38;29.77;;;12.00;99.90;;;;;;5028374;28;20498;-52
2022/01/01 11:55:02;;;;;;;69.28;29.95;;;12.00;99.90;;;;;;5030698;28;20025;-55
2022/01/01 11:57:29;;;;;;;60.15;28.38;;;12.10;99.90;;;;;;5029590;28;20030;-55
2022/01/01 12:00:07;;;;;;;71.20;29.35;;;12.00;99.90;;;;;;5004899;28;20088;-55
2022/01/01 12:02:34;;;;;;;65.78;28.25;;;12.00;99.90;;;;;;5029413;28;20021;-56
2022/01/01 12:05:18;;;;;;;65.90;28.15;;;12.10;99.90;;;;;;5010533;28;20057;-53
2022/01/01 12:07:57;;;;;;;67.10;28.02;;;12.10;99.90;;;;;;5010874;28;20029;-55
2022/01/01 12:10:25;;;;;;;71.93;28.80;;;12.10;99.90;;;;;;5011363;28;20076;-56
2022/01/01 12:12:59;;;;;;;64.63;26.98;;;12.20;99.90;;;;;;5029542;28;20029;-57
2022/01/01 12:15:27;;;;;;;61.63;24.70;;;12.30;99.90;;;;;;5029404;28;20633;-58
2022/01/01 12:18:01;;;;;;;63.17;26.77;;;12.30;99.90;;;;;;5001357;28;20092;-56
2022/01/01 12:20:30;;;;;;;62.17;27.25;;;12.30;99.90;;;;;;5009751;28;20124;-56
2022/01/01 12:22:58;;;;;;;62.67;26.33;;;12.30;99.90;;;;;;5007811;28;20498;-51
2022/01/01 12:25:27;;;;;;;62.30;27.95;;;12.30;99.90;;;;;;5029820;28;20121;-55
2022/01/01 12:28:00;;;;;;;64.22;26.08;;;12.30;99.90;;;;;;5028606;28;20025;-56
2022/01/01 12:30:46;;;;;;;66.70;26.80;;;12.20;99.90;;;;;;5029760;28;20025;-58
2022/01/01 12:33:25;;;;;;;65.10;26.75;;;12.30;99.90;;;;;;5027433;28;20163;-57
2022/01/01 12:35:56;;;;;;;66.78;26.50;;;12.30;99.90;;;;;;5009278;28;20476;-57